createdAt,value
2017-05-13T00:00:15.108Z,0
2017-05-13T00:01:15.139Z,0
2017-05-13T00:02:15.115Z,0
2017-05-13T00:03:15.048Z,0
2017-05-13T00:04:15.018Z,0
2017-05-13T00:05:15.008Z,0
2017-05-13T00:06:14.981Z,0
2017-05-13T00:07:14.955Z,0
2017-05-13T00:08:14.947Z,0
2017-05-13T00:09:14.917Z,0
2017-05-13T00:10:14.898Z,0
2017-05-13T00:11:14.885Z,0
2017-05-13T00:12:14.873Z,0
2017-05-13T00:13:14.875Z,0
2017-05-13T00:14:14.576Z,0
2017-05-13T00:15:14.501Z,0
2017-05-13T00:16:14.786Z,0
2017-05-13T00:17:14.755Z,0
2017-05-13T00:18:14.737Z,0
2017-05-13T00:19:14.708Z,0
2017-05-13T00:20:14.687Z,0
2017-05-13T00:21:14.708Z,0
2017-05-13T00:22:14.661Z,0
2017-05-13T00:23:14.620Z,0
2017-05-13T00:24:14.606Z,0
2017-05-13T00:25:14.581Z,0
2017-05-13T00:26:14.562Z,0
2017-05-13T00:27:14.299Z,0
2017-05-13T00:28:14.535Z,0
2017-05-13T00:29:14.498Z,0
2017-05-13T00:30:14.483Z,0
2017-05-13T00:31:14.458Z,0
2017-05-13T00:32:14.436Z,0
2017-05-13T00:33:14.418Z,0
2017-05-13T00:34:14.389Z,0
2017-05-13T00:35:14.076Z,0
2017-05-13T00:36:14.345Z,0
2017-05-13T00:37:14.329Z,0
2017-05-13T00:38:14.353Z,0
2017-05-13T00:39:14.286Z,0
2017-05-13T00:40:14.325Z,0
2017-05-13T00:41:14.239Z,0
2017-05-13T00:42:14.227Z,0
2017-05-13T00:43:13.895Z,0
2017-05-13T00:44:14.175Z,0
2017-05-13T00:45:13.912Z,0
2017-05-13T00:46:13.882Z,0
2017-05-13T00:47:14.139Z,0
2017-05-13T00:48:13.799Z,0
2017-05-13T00:49:14.081Z,0
2017-05-13T00:50:13.816Z,0
2017-05-13T00:51:13.738Z,0
2017-05-13T00:52:14.015Z,0
2017-05-13T00:53:13.990Z,0
2017-05-13T00:54:13.964Z,0
2017-05-13T00:55:13.946Z,0
2017-05-13T00:56:13.637Z,0
2017-05-13T00:57:14.130Z,0
2017-05-13T00:58:13.985Z,0
2017-05-13T00:59:13.587Z,0
2017-05-13T01:00:13.565Z,0
2017-05-13T01:01:13.828Z,0
2017-05-13T01:02:13.813Z,0
2017-05-13T01:03:13.481Z,0
2017-05-13T01:04:13.781Z,0
2017-05-13T01:05:13.439Z,0
2017-05-13T01:06:13.707Z,0
2017-05-13T01:07:13.692Z,0
2017-05-13T01:08:13.672Z,0
2017-05-13T01:09:13.703Z,0
2017-05-13T01:10:13.631Z,0
2017-05-13T01:11:13.308Z,0
2017-05-13T01:12:13.287Z,0
2017-05-13T01:13:13.566Z,0
2017-05-13T01:14:13.550Z,0
2017-05-13T01:15:13.535Z,0
2017-05-13T01:16:13.519Z,0
2017-05-13T01:17:13.493Z,0
2017-05-13T01:18:13.462Z,0
2017-05-13T01:19:13.440Z,0
2017-05-13T01:20:13.422Z,0
2017-05-13T01:21:13.099Z,0
2017-05-13T01:22:13.084Z,0
2017-05-13T01:23:13.361Z,0
2017-05-13T01:24:13.333Z,0
2017-05-13T01:25:13.363Z,0
2017-05-13T01:26:13.302Z,0
2017-05-13T01:27:12.980Z,0
2017-05-13T01:28:13.253Z,0
2017-05-13T01:29:13.231Z,0
2017-05-13T01:30:13.209Z,0
2017-05-13T01:31:13.195Z,0
2017-05-13T01:32:13.162Z,0
2017-05-13T01:33:12.540Z,0
2017-05-13T01:34:12.816Z,0
2017-05-13T01:35:12.804Z,0
2017-05-13T01:36:13.079Z,0
2017-05-13T01:37:13.057Z,0
2017-05-13T01:38:13.047Z,0
2017-05-13T01:39:13.026Z,0
2017-05-13T01:40:13.001Z,0
2017-05-13T01:41:12.976Z,0
2017-05-13T01:42:12.649Z,0
2017-05-13T01:43:12.643Z,0
2017-05-13T01:44:12.914Z,0
2017-05-13T01:45:12.894Z,0
2017-05-13T01:46:12.263Z,0
2017-05-13T01:47:12.854Z,0
2017-05-13T01:48:12.829Z,0
2017-05-13T01:49:12.809Z,0
2017-05-13T01:50:12.484Z,0
2017-05-13T01:51:12.762Z,0
2017-05-13T01:52:12.783Z,0
2017-05-13T01:53:12.730Z,0
2017-05-13T01:54:12.697Z,0
2017-05-13T01:55:12.685Z,0
2017-05-13T01:56:12.655Z,0
2017-05-13T01:57:12.351Z,0
2017-05-13T01:58:12.320Z,0
2017-05-13T01:59:12.600Z,0
2017-05-13T02:00:12.290Z,0
2017-05-13T02:01:12.250Z,0
2017-05-13T02:02:12.228Z,0
2017-05-13T02:03:12.510Z,0
2017-05-13T02:04:12.489Z,0
2017-05-13T02:05:12.466Z,0
2017-05-13T02:06:12.453Z,0
2017-05-13T02:07:12.438Z,0
2017-05-13T02:08:12.397Z,0
2017-05-13T02:09:12.406Z,0
2017-05-13T02:10:12.377Z,0
2017-05-13T02:11:12.093Z,0
2017-05-13T02:12:12.316Z,0
2017-05-13T02:13:12.290Z,0
2017-05-13T02:14:12.286Z,0
2017-05-13T02:15:11.649Z,0
2017-05-13T02:16:12.228Z,0
2017-05-13T02:17:12.210Z,0
2017-05-13T02:18:12.189Z,0
2017-05-13T02:19:12.172Z,0
2017-05-13T02:20:11.846Z,0
2017-05-13T02:21:12.129Z,0
2017-05-13T02:22:12.105Z,0
2017-05-13T02:23:12.085Z,0
2017-05-13T02:24:12.067Z,0
2017-05-13T02:25:12.041Z,0
2017-05-13T02:26:12.067Z,0
2017-05-13T02:27:11.701Z,0
2017-05-13T02:28:11.668Z,0
2017-05-13T02:29:11.657Z,0
2017-05-13T02:30:11.955Z,0
2017-05-13T02:31:11.922Z,0
2017-05-13T02:32:11.589Z,0
2017-05-13T02:33:11.866Z,0
2017-05-13T02:34:11.846Z,0
2017-05-13T02:35:11.524Z,0
2017-05-13T02:36:11.809Z,0
2017-05-13T02:37:11.486Z,0
2017-05-13T02:38:11.763Z,0
2017-05-13T02:39:11.744Z,0
2017-05-13T02:40:11.416Z,0
2017-05-13T02:41:11.693Z,0
2017-05-13T02:42:11.458Z,0
2017-05-13T02:43:11.656Z,0
2017-05-13T02:44:11.633Z,0
2017-05-13T02:45:11.820Z,0
2017-05-13T02:46:11.584Z,0
2017-05-13T02:47:11.614Z,0
2017-05-13T02:48:11.612Z,0
2017-05-13T02:49:11.531Z,0
2017-05-13T02:50:11.509Z,0
2017-05-13T02:51:11.482Z,0
2017-05-13T02:52:11.513Z,0
2017-05-13T02:53:11.146Z,0
2017-05-13T02:54:11.428Z,0
2017-05-13T02:55:11.118Z,0
2017-05-13T02:56:11.394Z,0
2017-05-13T02:57:11.357Z,0
2017-05-13T02:58:11.333Z,0
2017-05-13T02:59:11.314Z,0
2017-05-13T03:00:11.285Z,4
2017-05-13T03:01:11.268Z,4
2017-05-13T03:02:10.953Z,4
2017-05-13T03:03:10.920Z,0
2017-05-13T03:04:11.208Z,4
2017-05-13T03:05:11.236Z,4
2017-05-13T03:06:11.155Z,4
2017-05-13T03:07:11.149Z,4
2017-05-13T03:08:11.117Z,4
2017-05-13T03:09:11.097Z,8
2017-05-13T03:10:11.072Z,8
2017-05-13T03:11:11.057Z,12
2017-05-13T03:12:11.041Z,12
2017-05-13T03:13:10.712Z,12
2017-05-13T03:14:10.986Z,12
2017-05-13T03:15:10.973Z,16
2017-05-13T03:16:10.949Z,16
2017-05-13T03:17:10.974Z,20
2017-05-13T03:18:10.899Z,20
2017-05-13T03:19:10.580Z,24
2017-05-13T03:20:10.865Z,24
2017-05-13T03:21:10.844Z,24
2017-05-13T03:22:10.871Z,28
2017-05-13T03:23:10.854Z,32
2017-05-13T03:24:10.770Z,36
2017-05-13T03:25:10.748Z,36
2017-05-13T03:26:10.724Z,44
2017-05-13T03:27:10.712Z,44
2017-05-13T03:28:10.699Z,52
2017-05-13T03:29:10.669Z,56
2017-05-13T03:30:10.350Z,64
2017-05-13T03:31:10.627Z,68
2017-05-13T03:32:10.606Z,76
2017-05-13T03:33:10.829Z,80
2017-05-13T03:34:10.810Z,88
2017-05-13T03:35:10.543Z,96
2017-05-13T03:36:10.522Z,104
2017-05-13T03:37:10.498Z,116
2017-05-13T03:38:10.470Z,124
2017-05-13T03:39:10.455Z,140
2017-05-13T03:40:10.425Z,148
2017-05-13T03:41:10.409Z,156
2017-05-13T03:42:10.386Z,168
2017-05-13T03:43:10.375Z,180
2017-05-13T03:44:10.352Z,192
2017-05-13T03:45:10.320Z,212
2017-05-13T03:46:10.301Z,228
2017-05-13T03:47:10.278Z,244
2017-05-13T03:48:10.260Z,264
2017-05-13T03:49:10.247Z,276
2017-05-13T03:50:10.220Z,296
2017-05-13T03:51:09.892Z,308
2017-05-13T03:52:10.187Z,324
2017-05-13T03:53:10.149Z,340
2017-05-13T03:54:10.131Z,356
2017-05-13T03:55:10.108Z,372
2017-05-13T03:56:10.096Z,388
2017-05-13T03:57:10.113Z,408
2017-05-13T03:58:10.100Z,428
2017-05-13T03:59:10.023Z,452
2017-05-13T04:00:09.996Z,480
2017-05-13T04:01:09.984Z,504
2017-05-13T04:02:09.956Z,528
2017-05-13T04:03:09.940Z,548
2017-05-13T04:04:09.916Z,572
2017-05-13T04:05:09.891Z,596
2017-05-13T04:06:09.879Z,624
2017-05-13T04:07:09.856Z,664
2017-05-13T04:08:09.838Z,716
2017-05-13T04:09:09.815Z,764
2017-05-13T04:10:09.785Z,804
2017-05-13T04:11:09.767Z,840
2017-05-13T04:12:09.747Z,884
2017-05-13T04:13:09.724Z,924
2017-05-13T04:14:09.699Z,968
2017-05-13T04:15:09.690Z,1016
2017-05-13T04:16:09.716Z,1092
2017-05-13T04:17:09.640Z,1192
2017-05-13T04:18:09.628Z,1324
2017-05-13T04:19:09.593Z,1488
2017-05-13T04:20:09.322Z,1656
2017-05-13T04:21:09.546Z,1864
2017-05-13T04:22:09.532Z,2092
2017-05-13T04:23:09.510Z,2320
2017-05-13T04:24:09.497Z,2512
2017-05-13T04:25:09.461Z,2624
2017-05-13T04:26:09.449Z,2712
2017-05-13T04:27:09.429Z,2796
2017-05-13T04:28:09.412Z,2916
2017-05-13T04:29:09.387Z,2964
2017-05-13T04:30:09.359Z,2988
2017-05-13T04:31:09.340Z,2940
2017-05-13T04:32:09.318Z,2788
2017-05-13T04:33:09.294Z,2552
2017-05-13T04:34:09.290Z,2344
2017-05-13T04:35:09.256Z,2224
2017-05-13T04:36:09.270Z,2168
2017-05-13T04:37:09.215Z,2176
2017-05-13T04:38:09.187Z,2204
2017-05-13T04:39:09.177Z,2208
2017-05-13T04:40:09.148Z,2228
2017-05-13T04:41:09.173Z,2268
2017-05-13T04:42:09.115Z,2280
2017-05-13T04:43:09.081Z,2380
2017-05-13T04:44:09.069Z,2424
2017-05-13T04:45:08.749Z,2500
2017-05-13T04:46:09.012Z,2544
2017-05-13T04:47:09.042Z,2572
2017-05-13T04:48:08.978Z,2612
2017-05-13T04:49:08.973Z,2656
2017-05-13T04:50:08.941Z,2696
2017-05-13T04:51:08.981Z,2732
2017-05-13T04:52:08.893Z,2792
2017-05-13T04:53:08.874Z,2896
2017-05-13T04:54:08.856Z,3008
2017-05-13T04:55:08.829Z,3112
2017-05-13T04:56:08.824Z,3248
2017-05-13T04:57:08.869Z,3400
2017-05-13T04:58:08.770Z,3568
2017-05-13T04:59:09.101Z,3844
2017-05-13T05:00:08.757Z,4192
2017-05-13T05:01:08.714Z,4552
2017-05-13T05:02:08.689Z,4924
2017-05-13T05:03:08.720Z,5320
2017-05-13T05:04:08.649Z,5676
2017-05-13T05:05:08.619Z,5920
2017-05-13T05:06:08.596Z,5900
2017-05-13T05:07:08.575Z,5640
2017-05-13T05:08:08.563Z,5240
2017-05-13T05:09:08.574Z,4784
2017-05-13T05:10:08.514Z,4324
2017-05-13T05:11:08.197Z,3832
2017-05-13T05:12:08.467Z,3348
2017-05-13T05:13:08.150Z,2912
2017-05-13T05:14:08.431Z,2560
2017-05-13T05:15:08.673Z,2320
2017-05-13T05:16:08.441Z,2180
2017-05-13T05:17:08.396Z,2152
2017-05-13T05:18:08.351Z,2224
2017-05-13T05:19:08.331Z,2348
2017-05-13T05:20:08.345Z,2468
2017-05-13T05:21:08.343Z,2560
2017-05-13T05:22:08.271Z,2648
2017-05-13T05:23:08.239Z,2740
2017-05-13T05:24:08.250Z,2820
2017-05-13T05:25:08.201Z,2872
2017-05-13T05:26:08.237Z,2872
2017-05-13T05:27:08.154Z,2864
2017-05-13T05:28:07.844Z,2872
2017-05-13T05:29:08.124Z,2948
2017-05-13T05:30:08.103Z,3092
2017-05-13T05:31:08.083Z,3272
2017-05-13T05:32:08.095Z,3500
2017-05-13T05:33:08.085Z,3796
2017-05-13T05:34:08.013Z,4080
2017-05-13T05:35:07.999Z,4232
2017-05-13T05:36:07.974Z,4288
2017-05-13T05:37:07.960Z,4236
2017-05-13T05:38:07.935Z,4164
2017-05-13T05:39:07.976Z,4132
2017-05-13T05:40:07.890Z,4084
2017-05-13T05:41:07.934Z,4028
2017-05-13T05:42:08.096Z,3928
2017-05-13T05:43:07.541Z,3856
2017-05-13T05:44:07.527Z,3836
2017-05-13T05:45:07.790Z,3820
2017-05-13T05:46:07.778Z,3876
2017-05-13T05:47:07.766Z,4116
2017-05-13T05:48:07.733Z,4384
2017-05-13T05:49:07.705Z,4668
2017-05-13T05:50:07.684Z,4856
2017-05-13T05:51:07.667Z,4920
2017-05-13T05:52:07.654Z,4916
2017-05-13T05:53:07.628Z,4980
2017-05-13T05:54:07.613Z,5100
2017-05-13T05:55:07.282Z,5164
2017-05-13T05:56:07.556Z,5156
2017-05-13T05:57:07.557Z,5068
2017-05-13T05:58:07.572Z,4952
2017-05-13T05:59:07.503Z,4856
2017-05-13T06:00:07.477Z,4728
2017-05-13T06:01:07.161Z,4584
2017-05-13T06:02:07.441Z,4356
2017-05-13T06:03:07.421Z,4100
2017-05-13T06:04:07.409Z,3844
2017-05-13T06:05:07.395Z,3744
2017-05-13T06:06:07.366Z,3904
2017-05-13T06:07:07.335Z,4136
2017-05-13T06:08:07.324Z,4636
2017-05-13T06:09:07.539Z,5220
2017-05-13T06:10:07.274Z,5600
2017-05-13T06:11:07.264Z,5940
2017-05-13T06:12:07.234Z,6036
2017-05-13T06:13:07.222Z,6040
2017-05-13T06:14:07.199Z,6128
2017-05-13T06:15:07.178Z,6528
2017-05-13T06:16:07.157Z,7064
2017-05-13T06:17:07.133Z,7776
2017-05-13T06:18:07.114Z,8300
2017-05-13T06:19:07.091Z,8384
2017-05-13T06:20:07.071Z,8316
2017-05-13T06:21:07.051Z,8064
2017-05-13T06:22:07.037Z,7668
2017-05-13T06:23:07.015Z,7228
2017-05-13T06:24:06.694Z,6716
2017-05-13T06:25:07.017Z,6444
2017-05-13T06:26:06.955Z,6360
2017-05-13T06:27:06.933Z,6252
2017-05-13T06:28:06.614Z,6160
2017-05-13T06:29:06.585Z,6040
2017-05-13T06:30:06.871Z,6068
2017-05-13T06:31:06.549Z,6152
2017-05-13T06:32:06.534Z,6176
2017-05-13T06:33:06.814Z,6272
2017-05-13T06:34:06.785Z,6580
2017-05-13T06:35:06.458Z,6936
2017-05-13T06:36:06.790Z,7224
2017-05-13T06:37:06.722Z,7416
2017-05-13T06:38:06.709Z,7472
2017-05-13T06:39:06.745Z,7400
2017-05-13T06:40:06.666Z,7264
2017-05-13T06:41:06.648Z,7224
2017-05-13T06:42:06.625Z,7116
2017-05-13T06:43:06.608Z,7000
2017-05-13T06:44:06.591Z,6964
2017-05-13T06:45:06.578Z,7052
2017-05-13T06:46:06.546Z,7248
2017-05-13T06:47:06.528Z,7448
2017-05-13T06:48:06.251Z,7608
2017-05-13T06:49:06.189Z,7800
2017-05-13T06:50:06.466Z,7860
2017-05-13T06:51:06.450Z,7980
2017-05-13T06:52:06.483Z,7964
2017-05-13T06:53:06.456Z,7988
2017-05-13T06:54:06.390Z,8020
2017-05-13T06:55:06.373Z,7984
2017-05-13T06:56:06.350Z,8084
2017-05-13T06:57:06.335Z,8420
2017-05-13T06:58:06.310Z,8600
2017-05-13T06:59:06.284Z,8668
2017-05-13T07:00:06.011Z,8584
2017-05-13T07:01:06.258Z,8176
2017-05-13T07:02:06.228Z,7664
2017-05-13T07:03:06.207Z,7392
2017-05-13T07:04:06.194Z,6772
2017-05-13T07:05:06.224Z,6340
2017-05-13T07:06:06.166Z,6428
2017-05-13T07:07:05.833Z,6708
2017-05-13T07:08:06.115Z,6864
2017-05-13T07:09:06.099Z,7008
2017-05-13T07:10:06.077Z,7156
2017-05-13T07:11:06.053Z,7404
2017-05-13T07:12:06.080Z,7688
2017-05-13T07:13:06.020Z,7924
2017-05-13T07:14:05.994Z,8000
2017-05-13T07:15:05.983Z,7888
2017-05-13T07:16:05.952Z,7844
2017-05-13T07:17:05.949Z,7796
2017-05-13T07:18:05.939Z,7860
2017-05-13T07:19:05.896Z,8028
2017-05-13T07:20:05.878Z,8652
2017-05-13T07:21:05.868Z,9184
2017-05-13T07:22:05.857Z,9632
2017-05-13T07:23:05.828Z,9788
2017-05-13T07:24:05.806Z,9952
2017-05-13T07:25:05.781Z,10072
2017-05-13T07:26:05.764Z,10268
2017-05-13T07:27:05.444Z,10516
2017-05-13T07:28:05.722Z,10528
2017-05-13T07:29:05.708Z,10516
2017-05-13T07:30:05.731Z,10448
2017-05-13T07:31:05.664Z,10396
2017-05-13T07:32:05.644Z,10344
2017-05-13T07:33:05.631Z,10048
2017-05-13T07:34:05.630Z,9428
2017-05-13T07:35:05.590Z,8788
2017-05-13T07:36:05.586Z,8500
2017-05-13T07:37:04.952Z,8232
2017-05-13T07:38:05.529Z,7812
2017-05-13T07:39:05.512Z,7472
2017-05-13T07:40:05.493Z,7080
2017-05-13T07:41:05.472Z,6700
2017-05-13T07:42:05.450Z,6832
2017-05-13T07:43:05.495Z,7060
2017-05-13T07:44:05.120Z,7268
2017-05-13T07:45:05.400Z,7624
2017-05-13T07:46:05.393Z,8056
2017-05-13T07:47:05.409Z,8544
2017-05-13T07:48:05.347Z,8960
2017-05-13T07:49:05.318Z,9576
2017-05-13T07:50:05.288Z,10112
2017-05-13T07:51:05.283Z,9968
2017-05-13T07:52:05.264Z,9340
2017-05-13T07:53:05.241Z,8324
2017-05-13T07:54:05.221Z,7488
2017-05-13T07:55:05.210Z,7052
2017-05-13T07:56:05.187Z,6992
2017-05-13T07:57:05.165Z,7304
2017-05-13T07:58:05.146Z,7640
2017-05-13T07:59:04.828Z,7836
2017-05-13T08:00:05.106Z,8164
2017-05-13T08:01:05.092Z,8168
2017-05-13T08:02:05.093Z,8412
2017-05-13T08:03:05.047Z,9024
2017-05-13T08:04:05.026Z,9828
2017-05-13T08:05:05.015Z,10388
2017-05-13T08:06:04.987Z,11144
2017-05-13T08:07:04.969Z,11984
2017-05-13T08:08:04.961Z,12980
2017-05-13T08:09:04.637Z,13520
2017-05-13T08:10:04.608Z,13600
2017-05-13T08:11:04.888Z,13280
2017-05-13T08:12:04.875Z,13008
2017-05-13T08:13:04.606Z,12764
2017-05-13T08:14:04.833Z,12472
2017-05-13T08:15:04.827Z,12224
2017-05-13T08:16:04.819Z,11944
2017-05-13T08:17:04.813Z,11600
2017-05-13T08:18:04.781Z,11684
2017-05-13T08:19:04.753Z,11804
2017-05-13T08:20:04.794Z,12052
2017-05-13T08:21:04.726Z,12132
2017-05-13T08:22:04.698Z,12180
2017-05-13T08:23:04.678Z,12180
2017-05-13T08:24:04.661Z,12232
2017-05-13T08:25:04.632Z,12236
2017-05-13T08:26:04.618Z,12004
2017-05-13T08:27:04.609Z,11432
2017-05-13T08:28:04.279Z,10816
2017-05-13T08:29:04.254Z,10632
2017-05-13T08:30:04.552Z,9956
2017-05-13T08:31:04.223Z,9716
2017-05-13T08:32:04.816Z,9432
2017-05-13T08:33:04.180Z,9264
2017-05-13T08:34:04.463Z,9272
2017-05-13T08:35:04.459Z,9652
2017-05-13T08:36:04.428Z,10496
2017-05-13T08:37:04.413Z,11380
2017-05-13T08:38:04.404Z,12316
2017-05-13T08:39:04.376Z,13176
2017-05-13T08:40:04.053Z,13864
2017-05-13T08:41:04.333Z,14648
2017-05-13T08:42:04.311Z,15736
2017-05-13T08:43:04.302Z,16800
2017-05-13T08:44:04.278Z,17440
2017-05-13T08:45:03.962Z,17984
2017-05-13T08:46:04.240Z,18624
2017-05-13T08:47:03.923Z,19392
2017-05-13T08:48:03.903Z,19904
2017-05-13T08:49:04.194Z,21216
2017-05-13T08:50:04.180Z,23424
2017-05-13T08:51:03.841Z,22912
2017-05-13T08:52:04.174Z,22784
2017-05-13T08:53:04.120Z,20000
2017-05-13T08:54:04.097Z,18976
2017-05-13T08:55:04.332Z,18432
2017-05-13T08:56:04.064Z,17536
2017-05-13T08:57:04.043Z,16992
2017-05-13T08:58:04.020Z,15912
2017-05-13T08:59:04.026Z,15316
2017-05-13T09:00:03.998Z,15160
2017-05-13T09:01:03.976Z,15312
2017-05-13T09:02:03.344Z,15568
2017-05-13T09:03:03.939Z,16416
2017-05-13T09:04:03.974Z,17312
2017-05-13T09:05:03.913Z,18272
2017-05-13T09:06:03.894Z,18944
2017-05-13T09:07:03.578Z,19488
2017-05-13T09:08:03.548Z,19648
2017-05-13T09:09:03.835Z,19520
2017-05-13T09:10:03.229Z,19168
2017-05-13T09:11:03.519Z,19648
2017-05-13T09:12:03.847Z,20416
2017-05-13T09:13:03.816Z,22016
2017-05-13T09:14:03.752Z,21760
2017-05-13T09:15:03.775Z,22944
2017-05-13T09:16:03.722Z,24576
2017-05-13T09:17:03.403Z,26272
2017-05-13T09:18:03.690Z,27584
2017-05-13T09:19:03.697Z,31072
2017-05-13T09:20:03.657Z,30208
2017-05-13T09:21:03.637Z,29632
2017-05-13T09:22:03.615Z,27776
2017-05-13T09:23:03.609Z,30912
2017-05-13T09:24:03.608Z,34176
2017-05-13T09:25:03.579Z,36544
2017-05-13T09:26:03.555Z,37632
2017-05-13T09:27:03.538Z,42912
2017-05-13T09:28:03.525Z,46976
2017-05-13T09:29:03.516Z,38880
2017-05-13T09:30:03.485Z,32160
2017-05-13T09:31:03.484Z,32480
2017-05-13T09:32:03.474Z,34976
2017-05-13T09:33:03.452Z,29152
2017-05-13T09:34:03.488Z,34880
2017-05-13T09:35:03.437Z,43008
2017-05-13T09:36:03.400Z,63616
2017-05-13T09:37:03.407Z,49568
2017-05-13T09:38:03.385Z,36640
2017-05-13T09:39:03.375Z,31744
2017-05-13T09:40:03.356Z,41792
2017-05-13T09:41:03.362Z,75200
2017-05-13T09:42:03.127Z,24800
2017-05-13T09:43:03.319Z,24576
2017-05-13T09:44:03.310Z,20768
2017-05-13T09:45:03.305Z,19072
2017-05-13T09:46:02.977Z,18336
2017-05-13T09:47:03.264Z,15364
2017-05-13T09:48:02.957Z,18272
2017-05-13T09:49:03.290Z,17696
2017-05-13T09:50:03.279Z,16024
2017-05-13T09:51:02.921Z,16960
2017-05-13T09:52:02.904Z,19552
2017-05-13T09:53:03.194Z,20576
2017-05-13T09:54:03.167Z,23616
2017-05-13T09:55:03.168Z,26336
2017-05-13T09:56:03.149Z,53408
2017-05-13T09:57:03.134Z,28000
2017-05-13T09:58:03.109Z,35424
2017-05-13T09:59:03.105Z,35264
2017-05-13T10:00:02.785Z,83008
2017-05-13T10:01:03.128Z,53056
2017-05-13T10:02:03.066Z,79136
2017-05-13T10:03:03.047Z,77696
2017-05-13T10:04:02.732Z,42176
2017-05-13T10:05:03.027Z,21280
2017-05-13T10:06:03.009Z,15676
2017-05-13T10:07:02.999Z,12372
2017-05-13T10:08:02.983Z,10752
2017-05-13T10:09:02.981Z,10408
2017-05-13T10:10:02.669Z,12764
2017-05-13T10:11:02.948Z,11372
2017-05-13T10:12:03.000Z,9672
2017-05-13T10:13:02.925Z,8576
2017-05-13T10:14:02.909Z,7672
2017-05-13T10:15:02.591Z,6800
2017-05-13T10:16:02.894Z,6668
2017-05-13T10:17:02.865Z,7968
2017-05-13T10:18:02.550Z,9832
2017-05-13T10:19:02.835Z,10416
2017-05-13T10:20:02.528Z,10876
2017-05-13T10:21:02.509Z,13284
2017-05-13T10:22:02.799Z,12488
2017-05-13T10:23:02.781Z,10752
2017-05-13T10:24:02.759Z,9552
2017-05-13T10:25:02.750Z,9936
2017-05-13T10:26:02.735Z,11148
2017-05-13T10:27:02.723Z,12756
2017-05-13T10:28:02.703Z,17216
2017-05-13T10:29:02.690Z,39840
2017-05-13T10:30:02.731Z,87680
2017-05-13T10:31:02.661Z,87872
2017-05-13T10:32:02.640Z,84704
2017-05-13T10:33:02.624Z,81888
2017-05-13T10:34:02.624Z,81472
2017-05-13T10:35:02.598Z,84256
2017-05-13T10:36:02.582Z,80864
2017-05-13T10:37:02.573Z,79456
2017-05-13T10:38:02.854Z,22688
2017-05-13T10:39:02.246Z,87712
2017-05-13T10:40:02.545Z,89408
2017-05-13T10:41:02.221Z,96768
2017-05-13T10:42:02.219Z,14680
2017-05-13T10:43:02.214Z,14156
2017-05-13T10:44:02.489Z,12540
2017-05-13T10:45:02.475Z,11128
2017-05-13T10:46:02.483Z,10504
2017-05-13T10:47:02.474Z,10460
2017-05-13T10:48:02.444Z,10040
2017-05-13T10:49:02.137Z,9416
2017-05-13T10:50:02.139Z,9104
2017-05-13T10:51:02.426Z,8760
2017-05-13T10:52:02.105Z,8184
2017-05-13T10:53:02.393Z,7476
2017-05-13T10:54:02.073Z,7068
2017-05-13T10:55:02.362Z,7144
2017-05-13T10:56:02.410Z,81984
2017-05-13T10:57:02.033Z,88224
2017-05-13T10:58:02.313Z,96480
2017-05-13T10:59:02.311Z,100512
2017-05-13T11:00:02.286Z,105536
2017-05-13T11:01:02.275Z,110240
2017-05-13T11:02:02.327Z,110752
2017-05-13T11:03:02.272Z,112800
2017-05-13T11:04:02.239Z,101920
2017-05-13T11:05:01.931Z,47872
2017-05-13T11:06:02.274Z,10664
2017-05-13T11:07:02.211Z,10380
2017-05-13T11:08:02.204Z,10836
2017-05-13T11:09:02.193Z,10656
2017-05-13T11:10:01.874Z,11732
2017-05-13T11:11:02.421Z,10520
2017-05-13T11:12:02.171Z,9992
2017-05-13T11:13:02.140Z,8984
2017-05-13T11:14:02.131Z,8552
2017-05-13T11:15:02.113Z,8948
2017-05-13T11:16:02.108Z,9180
2017-05-13T11:17:02.104Z,11272
2017-05-13T11:18:02.132Z,13020
2017-05-13T11:19:02.119Z,14420
2017-05-13T11:20:02.057Z,15088
2017-05-13T11:21:02.038Z,15780
2017-05-13T11:22:02.060Z,16012
2017-05-13T11:23:01.411Z,16572
2017-05-13T11:24:02.044Z,13876
2017-05-13T11:25:01.999Z,12424
2017-05-13T11:26:01.970Z,11420
2017-05-13T11:27:01.957Z,13336
2017-05-13T11:28:01.945Z,15464
2017-05-13T11:29:01.928Z,14924
2017-05-13T11:30:01.911Z,14756
2017-05-13T11:31:01.592Z,19072
2017-05-13T11:32:01.877Z,17920
2017-05-13T11:33:01.856Z,18304
2017-05-13T11:34:01.541Z,16928
2017-05-13T11:35:01.829Z,15064
2017-05-13T11:36:01.857Z,14324
2017-05-13T11:37:01.797Z,13156
2017-05-13T11:38:01.792Z,10260
2017-05-13T11:39:01.761Z,10316
2017-05-13T11:40:01.747Z,11908
2017-05-13T11:41:01.727Z,13448
2017-05-13T11:42:01.721Z,12744
2017-05-13T11:43:01.703Z,11120
2017-05-13T11:44:01.684Z,10268
2017-05-13T11:45:01.677Z,10864
2017-05-13T11:46:01.653Z,10388
2017-05-13T11:47:01.695Z,10232
2017-05-13T11:48:01.329Z,11580
2017-05-13T11:49:01.608Z,14308
2017-05-13T11:50:01.589Z,13992
2017-05-13T11:51:01.578Z,12564
2017-05-13T11:52:01.565Z,15488
2017-05-13T11:53:01.545Z,18624
2017-05-13T11:54:01.525Z,17056
2017-05-13T11:55:01.505Z,15892
2017-05-13T11:56:01.499Z,14364
2017-05-13T11:57:01.483Z,10992
2017-05-13T11:58:01.471Z,11184
2017-05-13T11:59:01.140Z,14772
2017-05-13T12:00:01.677Z,15080
2017-05-13T12:01:01.111Z,15260
2017-05-13T12:02:01.148Z,13332
2017-05-13T12:03:01.385Z,13108
2017-05-13T12:04:01.075Z,13780
2017-05-13T12:05:01.353Z,14448
2017-05-13T12:06:01.347Z,15540
2017-05-13T12:07:01.320Z,16136
2017-05-13T12:08:01.299Z,15808
2017-05-13T12:09:01.285Z,13780
2017-05-13T12:10:01.264Z,15124
2017-05-13T12:11:01.257Z,14976
2017-05-13T12:12:01.238Z,16412
2017-05-13T12:13:01.226Z,18784
2017-05-13T12:14:01.223Z,17952
2017-05-13T12:15:01.192Z,14748
2017-05-13T12:16:01.176Z,13664
2017-05-13T12:17:01.206Z,12208
2017-05-13T12:18:00.841Z,11140
2017-05-13T12:19:01.124Z,10440
2017-05-13T12:20:01.112Z,11588
2017-05-13T12:21:01.095Z,14148
2017-05-13T12:22:01.126Z,16080
2017-05-13T12:23:00.771Z,17920
2017-05-13T12:24:01.053Z,20064
2017-05-13T12:25:01.034Z,19328
2017-05-13T12:26:01.014Z,18336
2017-05-13T12:27:00.698Z,20416
2017-05-13T12:28:00.990Z,18784
2017-05-13T12:29:01.005Z,18304
2017-05-13T12:30:00.953Z,19840
2017-05-13T12:31:00.937Z,19232
2017-05-13T12:32:00.628Z,15880
2017-05-13T12:33:00.657Z,13428
2017-05-13T12:34:00.883Z,12532
2017-05-13T12:35:00.570Z,12644
2017-05-13T12:36:00.554Z,13580
2017-05-13T12:37:00.837Z,16308
2017-05-13T12:38:00.528Z,14904
2017-05-13T12:39:00.825Z,12240
2017-05-13T12:40:00.847Z,11500
2017-05-13T12:41:00.788Z,10776
2017-05-13T12:42:00.766Z,10172
2017-05-13T12:43:00.744Z,10396
2017-05-13T12:44:00.733Z,12472
2017-05-13T12:45:00.707Z,16704
2017-05-13T12:46:00.698Z,16448
2017-05-13T12:47:00.693Z,12772
2017-05-13T12:48:00.668Z,11756
2017-05-13T12:49:00.649Z,12492
2017-05-13T12:50:00.640Z,12848
2017-05-13T12:51:00.628Z,11336
2017-05-13T12:52:00.601Z,10980
2017-05-13T12:53:00.594Z,11848
2017-05-13T12:54:00.579Z,11496
2017-05-13T12:55:00.557Z,11684
2017-05-13T12:56:00.549Z,11176
2017-05-13T12:57:00.577Z,12196
2017-05-13T12:58:00.563Z,14120
2017-05-13T12:59:00.490Z,14440
2017-05-13T13:00:00.473Z,14828
2017-05-13T13:01:00.464Z,14564
2017-05-13T13:02:00.447Z,13880
2017-05-13T13:03:00.418Z,14896
2017-05-13T13:04:00.405Z,16664
2017-05-13T13:05:00.096Z,11720
2017-05-13T13:06:00.380Z,9188
2017-05-13T13:07:00.379Z,7912
2017-05-13T13:08:00.344Z,7132
2017-05-13T13:09:00.384Z,7044
2017-05-13T13:10:00.022Z,6632
2017-05-13T13:11:00.309Z,6624
2017-05-13T13:12:00.293Z,6788
2017-05-13T13:13:00.265Z,5616
2017-05-13T13:14:00.257Z,5444
2017-05-13T13:15:00.322Z,5920
2017-05-13T13:16:00.219Z,7360
2017-05-13T13:17:00.203Z,7844
2017-05-13T13:18:00.204Z,8276
2017-05-13T13:19:00.168Z,10948
2017-05-13T13:20:00.163Z,12852
2017-05-13T13:21:00.131Z,10640
2017-05-13T13:22:00.120Z,8624
2017-05-13T13:23:00.105Z,7520
2017-05-13T13:23:59.778Z,7108
2017-05-13T13:25:00.129Z,6272
2017-05-13T13:26:00.075Z,6108
2017-05-13T13:26:59.754Z,6592
2017-05-13T13:28:00.025Z,7764
2017-05-13T13:29:00.012Z,8540
2017-05-13T13:29:59.999Z,9436